createdAt,value
2022-09-18T00:00:25.069Z,96902.23
2022-09-18T00:04:07.426Z,96906.91
2022-09-18T00:08:03.370Z,96901.38
2022-09-18T00:11:28.874Z,96901.40
2022-09-18T00:15:02.600Z,96900.66
2022-09-18T00:18:39.700Z,96902.48
2022-09-18T00:22:16.114Z,96905.38
2022-09-18T00:25:53.062Z,96903.55
2022-09-18T00:29:29.590Z,96910.10
2022-09-18T00:33:25.120Z,96908.85
2022-09-18T00:36:46.933Z,96905.20
2022-09-18T00:40:23.681Z,96908.14
2022-09-18T00:44:38.113Z,96908.48
2022-09-18T00:48:01.312Z,96911.58
2022-09-18T00:51:39.631Z,96913.19
2022-09-18T00:55:16.196Z,96915.74
2022-09-18T00:59:13.401Z,96911.86
2022-09-18T01:02:35.071Z,96909.58
2022-09-18T01:06:50.210Z,96908.37
2022-09-18T01:10:44.246Z,96905.80
2022-09-18T01:14:39.924Z,96903.83
2022-09-18T01:18:44.232Z,96902.50
2022-09-18T01:22:18.292Z,96907.05
2022-09-18T01:26:01.615Z,96905.41
2022-09-18T01:29:50.862Z,96907.19
2022-09-18T01:33:24.174Z,96907.38
2022-09-18T01:36:55.405Z,96907.47
2022-09-18T01:41:01.225Z,96911.89
2022-09-18T01:44:44.232Z,96913.91
2022-09-18T01:48:08.650Z,96911.44
2022-09-18T01:52:08.903Z,96912.33
2022-09-18T01:55:34.457Z,96909.88
2022-09-18T01:59:15.739Z,96907.40
2022-09-18T02:03:02.917Z,96907.55
2022-09-18T02:06:43.810Z,96907.72
2022-09-18T02:10:07.197Z,96908.77
2022-09-18T02:14:12.621Z,96910.89
2022-09-18T02:18:02.534Z,96908.94
2022-09-18T02:21:57.444Z,96910.58
2022-09-18T02:25:45.105Z,96907.46
2022-09-18T02:29:09.137Z,96904.41
2022-09-18T02:32:43.586Z,96910.36
2022-09-18T02:36:26.554Z,96908.23
2022-09-18T02:40:31.400Z,96905.08
2022-09-18T02:44:08.975Z,96909.96
2022-09-18T02:48:05.923Z,96907.61
2022-09-18T02:51:56.590Z,96904.64
2022-09-18T02:55:25.992Z,96903.96
2022-09-18T02:59:22.165Z,96902.83
2022-09-18T03:02:52.019Z,96902.86
2022-09-18T03:06:26.947Z,96904.14
2022-09-18T03:10:03.979Z,96909.57
2022-09-18T03:13:40.432Z,96908.15
2022-09-18T03:17:17.310Z,96912.23
2022-09-18T03:20:54.264Z,96911.26
2022-09-18T03:24:31.261Z,96913.70
2022-09-18T03:28:07.588Z,96912.84
2022-09-18T03:31:44.584Z,96913.20
2022-09-18T03:35:42.271Z,96917.23
2022-09-18T03:39:05.853Z,96917.88
2022-09-18T03:42:44.555Z,96920.35
2022-09-18T03:46:23.605Z,96920.62
2022-09-18T03:50:14.510Z,96920.65
2022-09-18T03:53:55.549Z,96914.42
2022-09-18T03:57:33.621Z,96911.28
2022-09-18T04:01:15.633Z,96912.77
2022-09-18T04:04:56.913Z,96911.59
2022-09-18T04:08:57.996Z,96912.33
2022-09-18T04:12:27.993Z,96907.18
2022-09-18T04:16:04.062Z,96904.30
2022-09-18T04:19:40.740Z,96902.72
2022-09-18T04:23:18.551Z,96906.16
2022-09-18T04:27:14.324Z,96905.34
2022-09-18T04:30:55.347Z,96910.33
2022-09-18T04:34:37.101Z,96912.01
2022-09-18T04:38:18.917Z,96916.02
2022-09-18T04:41:41.195Z,96915.77
2022-09-18T04:45:17.892Z,96913.69
2022-09-18T04:48:54.928Z,96920.75
2022-09-18T04:52:31.349Z,96918.65
2022-09-18T04:56:27.048Z,96925.58
2022-09-18T04:59:48.540Z,96927.19
2022-09-18T05:03:25.298Z,96928.30
2022-09-18T05:07:20.990Z,96933.58
2022-09-18T05:11:03.822Z,96933.27
2022-09-18T05:14:46.147Z,96938.48
2022-09-18T05:18:11.980Z,96936.81
2022-09-18T05:21:51.804Z,96935.19
2022-09-18T05:25:27.338Z,96937.59
2022-09-18T05:29:18.868Z,96937.37
2022-09-18T05:32:41.690Z,96939.52
2022-09-18T05:36:18.193Z,96937.56
2022-09-18T05:39:54.975Z,96943.85
2022-09-18T05:43:31.840Z,96944.30
2022-09-18T05:47:08.380Z,96943.48
2022-09-18T05:51:04.612Z,96942.20
2022-09-18T05:54:26.471Z,96945.00
2022-09-18T05:58:22.366Z,96943.85
2022-09-18T06:02:05.059Z,96942.35
2022-09-18T06:06:07.258Z,96946.55
2022-09-18T06:09:49.735Z,96945.21
2022-09-18T06:13:15.908Z,96946.35
2022-09-18T06:17:07.855Z,96940.96
2022-09-18T06:20:29.576Z,96943.05
2022-09-18T06:24:06.781Z,96944.70
2022-09-18T06:27:43.227Z,96945.09
2022-09-18T06:31:39.047Z,96947.21
2022-09-18T06:35:23.887Z,96946.70
2022-09-18T06:39:04.777Z,96949.67
2022-09-18T06:42:46.610Z,96950.09
2022-09-18T06:46:24.860Z,96953.12
2022-09-18T06:50:24.907Z,96950.27
2022-09-18T06:53:46.518Z,96950.83
2022-09-18T06:57:23.579Z,96944.86
2022-09-18T07:01:01.017Z,96940.92
2022-09-18T07:04:36.858Z,96946.25
2022-09-18T07:08:13.758Z,96946.51
2022-09-18T07:11:50.485Z,96948.32
2022-09-18T07:15:47.171Z,96953.64
2022-09-18T07:19:11.506Z,96956.57
2022-09-18T07:22:56.683Z,96959.58
2022-09-18T07:26:28.964Z,96961.28
2022-09-18T07:30:07.597Z,96961.94
2022-09-18T07:33:42.467Z,96961.13
2022-09-18T07:37:18.971Z,96961.39
2022-09-18T07:40:56.249Z,96962.38
2022-09-18T07:44:34.393Z,96964.08
2022-09-18T07:48:09.337Z,96962.13
2022-09-18T07:51:46.216Z,96964.55
2022-09-18T07:55:24.481Z,96968.29
2022-09-18T07:58:59.634Z,96974.45
2022-09-18T08:03:06.215Z,96970.82
2022-09-18T08:06:55.216Z,96973.30
2022-09-18T08:10:43.676Z,96976.44
2022-09-18T08:14:48.154Z,96972.17
2022-09-18T08:18:26.548Z,96966.94
2022-09-18T08:22:04.830Z,96973.46
2022-09-18T08:26:00.896Z,96975.20
2022-09-18T08:29:42.924Z,96975.39
2022-09-18T08:33:09.245Z,96970.60
2022-09-18T08:36:44.964Z,96971.52
2022-09-18T08:40:42.531Z,96969.66
2022-09-18T08:44:55.667Z,96965.19
2022-09-18T08:48:44.809Z,96963.60
2022-09-18T08:52:14.983Z,96966.51
2022-09-18T08:55:51.035Z,96961.27
2022-09-18T08:59:47.683Z,96960.30
2022-09-18T09:03:25.122Z,96954.70
2022-09-18T09:07:11.216Z,96957.13
2022-09-18T09:10:50.871Z,96953.89
2022-09-18T09:14:57.028Z,96953.98
2022-09-18T09:19:00.955Z,96949.74
2022-09-18T09:23:01.700Z,96946.66
2022-09-18T09:26:42.605Z,96939.98
2022-09-18T09:30:17.142Z,96945.30
2022-09-18T09:34:19.290Z,96954.08
2022-09-18T09:37:53.676Z,96963.83
2022-09-18T09:41:49.652Z,96965.77
2022-09-18T09:45:15.606Z,96965.34
2022-09-18T09:48:57.151Z,96966.75
2022-09-18T09:52:28.591Z,96964.84
2022-09-18T09:56:56.742Z,96967.71
2022-09-18T10:00:20.590Z,96973.44
2022-09-18T10:04:33.173Z,96976.80
2022-09-18T10:08:06.377Z,96975.13
2022-09-18T10:11:37.967Z,96977.40
2022-09-18T10:15:43.031Z,96972.69
2022-09-18T10:19:17.357Z,96974.11
2022-09-18T10:22:50.307Z,96974.60
2022-09-18T10:27:03.685Z,96976.27
2022-09-18T10:30:26.984Z,96972.33
2022-09-18T10:34:50.961Z,96978.80
2022-09-18T10:38:30.049Z,96979.81
2022-09-18T10:42:18.644Z,96987.52
2022-09-18T10:46:00.593Z,96993.80
2022-09-18T10:49:55.078Z,96990.70
2022-09-18T10:53:41.859Z,96990.31
2022-09-18T10:57:32.120Z,96988.65
2022-09-18T11:01:02.713Z,96987.27
2022-09-18T11:04:34.960Z,96987.23
2022-09-18T11:08:17.839Z,96988.33
2022-09-18T11:12:18.705Z,96990.86
2022-09-18T11:15:53.066Z,96990.52
2022-09-18T11:19:31.644Z,96992.72
2022-09-18T11:23:15.922Z,96992.67
2022-09-18T11:26:49.468Z,96989.09
2022-09-18T11:30:37.976Z,96990.40
2022-09-18T11:34:06.274Z,96987.73
2022-09-18T11:37:54.793Z,96992.67
2022-09-18T11:41:24.841Z,96991.12
2022-09-18T11:45:09.522Z,96997.96
2022-09-18T11:48:50.971Z,96998.86
2022-09-18T11:52:31.056Z,96998.77
2022-09-18T11:56:40.206Z,96998.08
2022-09-18T12:00:10.846Z,96997.48
2022-09-18T12:03:47.472Z,96998.21
2022-09-18T12:07:40.264Z,96990.45
2022-09-18T12:11:13.081Z,96991.34
2022-09-18T12:14:51.484Z,96995.35
2022-09-18T12:18:25.287Z,96993.71
2022-09-18T12:22:24.864Z,96993.56
2022-09-18T12:26:09.858Z,97002.98
2022-09-18T12:29:58.199Z,97008.23
2022-09-18T12:34:02.585Z,97009.45
2022-09-18T12:37:58.443Z,97002.30
2022-09-18T12:41:58.966Z,96997.98
2022-09-18T12:46:11.504Z,96996.48
2022-09-18T12:50:22.903Z,97009.95
2022-09-18T12:54:31.497Z,97033.73
2022-09-18T12:58:37.648Z,97048.70
2022-09-18T13:02:37.911Z,97070.89
2022-09-18T13:06:09.179Z,97074.21
2022-09-18T13:09:55.786Z,97072.92
2022-09-18T13:13:49.363Z,97077.39
2022-09-18T13:17:23.490Z,97074.17
2022-09-18T13:20:48.796Z,97075.96
2022-09-18T13:24:33.779Z,97077.98
2022-09-18T13:28:05.069Z,97077.29
2022-09-18T13:31:39.612Z,97077.58
2022-09-18T13:35:29.003Z,97082.73
2022-09-18T13:38:53.715Z,97084.45
2022-09-18T13:42:42.759Z,97085.75
2022-09-18T13:46:07.613Z,97094.02
2022-09-18T13:50:04.924Z,97097.59
2022-09-18T13:53:38.702Z,97102.88
2022-09-18T13:57:05.047Z,97106.69
2022-09-18T14:01:04.403Z,97106.16
2022-09-18T14:04:43.491Z,97107.73
2022-09-18T14:08:26.101Z,97110.61
2022-09-18T14:11:48.595Z,97110.66
2022-09-18T14:15:25.920Z,97115.20
2022-09-18T14:19:31.541Z,97113.94
2022-09-18T14:22:54.646Z,97117.40
2022-09-18T14:26:37.704Z,97118.44
2022-09-18T14:30:28.615Z,97119.58
2022-09-18T14:33:51.846Z,97121.55
2022-09-18T14:37:46.546Z,97126.18
2022-09-18T14:41:19.479Z,97124.12
2022-09-18T14:45:12.939Z,97126.36
2022-09-18T14:48:38.464Z,97128.95
2022-09-18T14:52:26.972Z,97130.77
2022-09-18T14:56:13.145Z,97131.88
2022-09-18T14:59:55.994Z,97137.21
2022-09-18T15:03:41.654Z,97138.17
2022-09-18T15:07:04.392Z,97140.33
2022-09-18T15:10:43.938Z,97138.98
2022-09-18T15:14:42.728Z,97140.46
2022-09-18T15:18:27.661Z,97144.47
2022-09-18T15:21:51.241Z,97145.62
2022-09-18T15:25:32.756Z,97145.91
2022-09-18T15:29:12.304Z,97145.96
2022-09-18T15:32:46.039Z,97145.81
2022-09-18T15:36:26.844Z,97150.14
2022-09-18T15:40:06.771Z,97151.98
2022-09-18T15:43:50.232Z,97148.24
2022-09-18T15:47:37.968Z,97147.32
2022-09-18T15:51:35.897Z,97142.27
2022-09-18T15:55:28.291Z,97141.08
2022-09-18T15:58:56.096Z,97141.40
2022-09-18T16:02:39.212Z,97138.09
2022-09-18T16:06:07.647Z,97138.19
2022-09-18T16:09:59.284Z,97137.52
2022-09-18T16:13:40.964Z,97141.45
2022-09-18T16:17:36.761Z,97139.67
2022-09-18T16:21:19.435Z,97138.59
2022-09-18T16:24:41.386Z,97141.15
2022-09-18T16:28:42.712Z,97137.33
2022-09-18T16:32:12.702Z,97139.01
2022-09-18T16:36:12.858Z,97144.48
2022-09-18T16:39:35.513Z,97143.89
2022-09-18T16:43:30.440Z,97146.78
2022-09-18T16:46:58.439Z,97148.10
2022-09-18T16:50:28.963Z,97146.15
2022-09-18T16:54:25.048Z,97152.02
2022-09-18T16:57:47.390Z,97152.27
2022-09-18T17:01:24.295Z,97149.67
2022-09-18T17:05:19.723Z,97150.41
2022-09-18T17:08:43.986Z,97152.98
2022-09-18T17:12:18.345Z,97148.46
2022-09-18T17:15:58.946Z,97156.70
2022-09-18T17:19:50.812Z,97166.02
2022-09-18T17:23:13.357Z,97170.20
2022-09-18T17:26:49.951Z,97171.27
2022-09-18T17:30:26.949Z,97173.36
2022-09-18T17:34:05.792Z,97173.79
2022-09-18T17:37:40.438Z,97179.98
2022-09-18T17:41:19.467Z,97179.09
2022-09-18T17:45:12.838Z,97182.92
2022-09-18T17:48:35.604Z,97183.66
2022-09-18T17:52:11.903Z,97187.00
2022-09-18T17:56:12.468Z,97190.87
2022-09-18T17:59:34.765Z,97185.70
2022-09-18T18:03:12.293Z,97180.98
2022-09-18T18:06:49.314Z,97178.23
2022-09-18T18:10:25.128Z,97180.53
2022-09-18T18:14:01.769Z,97176.66
2022-09-18T18:17:40.326Z,97179.96
2022-09-18T18:21:15.238Z,97179.56
2022-09-18T18:24:52.297Z,97181.77
2022-09-18T18:28:30.444Z,97182.98
2022-09-18T18:32:08.608Z,97187.65
2022-09-18T18:36:19.080Z,97187.48
2022-09-18T18:40:00.066Z,97183.90
2022-09-18T18:43:42.100Z,97179.39
2022-09-18T18:47:04.927Z,97179.20
2022-09-18T18:50:42.634Z,97179.77
2022-09-18T18:54:36.561Z,97184.03
2022-09-18T18:58:18.406Z,97180.96
2022-09-18T19:01:42.461Z,97180.64
2022-09-18T19:05:23.591Z,97178.77
2022-09-18T19:09:20.567Z,97179.77
2022-09-18T19:12:42.775Z,97174.75
2022-09-18T19:16:19.890Z,97175.87
2022-09-18T19:19:57.285Z,97175.98
2022-09-18T19:23:33.332Z,97175.11
2022-09-18T19:27:10.996Z,97178.07
2022-09-18T19:30:48.693Z,97175.06
2022-09-18T19:34:23.947Z,97172.98
2022-09-18T19:38:01.283Z,97169.36
2022-09-18T19:42:02.713Z,97170.73
2022-09-18T19:45:28.795Z,97165.88
2022-09-18T19:49:25.008Z,97162.31
2022-09-18T19:52:51.182Z,97163.29
2022-09-18T19:56:47.702Z,97161.86
2022-09-18T20:00:10.990Z,97162.73
2022-09-18T20:03:52.757Z,97161.38
2022-09-18T20:07:23.331Z,97161.44
2022-09-18T20:11:00.392Z,97165.27
2022-09-18T20:14:56.334Z,97165.22
2022-09-18T20:18:17.757Z,97164.77
2022-09-18T20:21:55.240Z,97160.86
2022-09-18T20:25:31.737Z,97166.41
2022-09-18T20:29:12.012Z,97170.46
2022-09-18T20:32:45.527Z,97167.95
2022-09-18T20:36:21.927Z,97163.00
2022-09-18T20:40:17.745Z,97157.98
2022-09-18T20:43:44.485Z,97154.89
2022-09-18T20:47:36.791Z,97158.14
2022-09-18T20:51:09.053Z,97155.19
2022-09-18T20:54:35.504Z,97158.28
2022-09-18T20:58:13.583Z,97161.71
2022-09-18T21:01:49.436Z,97156.27
2022-09-18T21:05:27.150Z,97151.70
2022-09-18T21:09:08.484Z,97151.10
2022-09-18T21:12:39.956Z,97145.02
2022-09-18T21:16:20.921Z,97144.24
2022-09-18T21:19:52.887Z,97142.83
2022-09-18T21:23:47.965Z,97142.29
2022-09-18T21:27:10.171Z,97142.60
2022-09-18T21:30:46.939Z,97146.02
2022-09-18T21:34:31.562Z,97146.61
2022-09-18T21:38:00.681Z,97144.79
2022-09-18T21:41:58.051Z,97141.30
2022-09-18T21:45:39.680Z,97143.21
2022-09-18T21:49:22.064Z,97139.01
2022-09-18T21:52:44.425Z,97139.17
2022-09-18T21:56:21.066Z,97139.34
2022-09-18T21:59:57.540Z,97141.06
2022-09-18T22:03:34.473Z,97143.64
2022-09-18T22:07:30.609Z,97144.28
2022-09-18T22:11:11.263Z,97141.45
2022-09-18T22:14:38.415Z,97139.27
2022-09-18T22:18:09.945Z,97141.64
2022-09-18T22:22:06.018Z,97136.64
2022-09-18T22:25:27.683Z,97132.52
2022-09-18T22:29:07.590Z,97132.20
2022-09-18T22:32:41.335Z,97128.90
2022-09-18T22:36:37.032Z,97127.54
2022-09-18T22:39:59.012Z,97124.18
2022-09-18T22:43:37.587Z,97124.60
2022-09-18T22:47:13.088Z,97121.04
2022-09-18T22:50:49.905Z,97120.39
2022-09-18T22:54:26.849Z,97125.88
2022-09-18T22:58:06.468Z,97119.64
2022-09-18T23:02:01.694Z,97118.38
2022-09-18T23:05:23.821Z,97119.39
2022-09-18T23:09:03.299Z,97116.13
2022-09-18T23:12:55.994Z,97116.45
2022-09-18T23:16:19.100Z,97114.85
2022-09-18T23:19:54.711Z,97116.20
2022-09-18T23:23:50.231Z,97112.48
2022-09-18T23:27:31.326Z,97119.70
2022-09-18T23:31:18.264Z,97116.58
2022-09-18T23:34:40.680Z,97119.60
2022-09-18T23:38:17.357Z,97117.56
2022-09-18T23:41:55.993Z,97118.30
2022-09-18T23:45:30.822Z,97117.34
2022-09-18T23:49:09.234Z,97114.52
2022-09-18T23:52:44.197Z,97117.73
2022-09-18T23:56:23.512Z,97114.95
